sensor_id;sensor_type;location;lat;lon;timestamp;P1;durP1;ratioP1;P2;durP2;ratioP2
5898;SDS011;2975;50.956;6.962;2022-11-15T00:00:44;10.33;;;5.60;;
5898;SDS011;2975;50.956;6.962;2022-11-15T00:03:10;7.70;;;5.40;;
5898;SDS011;2975;50.956;6.962;2022-11-15T00:05:41;6.43;;;4.47;;
5898;SDS011;2975;50.956;6.962;2022-11-15T00:08:07;9.20;;;5.20;;
5898;SDS011;2975;50.956;6.962;2022-11-15T00:10:33;5.60;;;4.43;;
5898;SDS011;2975;50.956;6.962;2022-11-15T00:12:59;7.83;;;4.87;;
5898;SDS011;2975;50.956;6.962;2022-11-15T00:15:24;7.87;;;5.77;;
5898;SDS011;2975;50.956;6.962;2022-11-15T00:17:50;7.37;;;5.07;;
5898;SDS011;2975;50.956;6.962;2022-11-15T00:20:16;11.53;;;5.30;;
5898;SDS011;2975;50.956;6.962;2022-11-15T00:22:42;7.30;;;4.80;;
5898;SDS011;2975;50.956;6.962;2022-11-15T00:25:08;10.87;;;5.77;;
5898;SDS011;2975;50.956;6.962;2022-11-15T00:27:34;6.83;;;5.00;;
5898;SDS011;2975;50.956;6.962;2022-11-15T00:30:00;12.87;;;5.87;;
5898;SDS011;2975;50.956;6.962;2022-11-15T00:32:31;9.13;;;5.30;;
5898;SDS011;2975;50.956;6.962;2022-11-15T00:34:57;9.83;;;5.13;;
5898;SDS011;2975;50.956;6.962;2022-11-15T00:37:22;8.13;;;5.23;;
5898;SDS011;2975;50.956;6.962;2022-11-15T00:39:48;8.93;;;5.37;;
5898;SDS011;2975;50.956;6.962;2022-11-15T00:42:13;8.13;;;4.90;;
5898;SDS011;2975;50.956;6.962;2022-11-15T00:44:39;8.40;;;5.03;;
5898;SDS011;2975;50.956;6.962;2022-11-15T00:47:04;7.43;;;5.17;;
5898;SDS011;2975;50.956;6.962;2022-11-15T00:49:30;6.97;;;4.83;;
5898;SDS011;2975;50.956;6.962;2022-11-15T00:51:55;9.50;;;5.00;;
5898;SDS011;2975;50.956;6.962;2022-11-15T00:54:21;8.23;;;5.30;;
5898;SDS011;2975;50.956;6.962;2022-11-15T00:56:47;7.83;;;5.33;;
5898;SDS011;2975;50.956;6.962;2022-11-15T00:59:12;6.40;;;4.97;;
5898;SDS011;2975;50.956;6.962;2022-11-15T01:01:38;11.93;;;5.10;;
5898;SDS011;2975;50.956;6.962;2022-11-15T01:04:03;10.57;;;5.20;;
5898;SDS011;2975;50.956;6.962;2022-11-15T01:06:29;9.20;;;5.30;;
5898;SDS011;2975;50.956;6.962;2022-11-15T01:08:54;6.57;;;5.17;;
5898;SDS011;2975;50.956;6.962;2022-11-15T01:11:20;7.33;;;4.63;;
5898;SDS011;2975;50.956;6.962;2022-11-15T01:13:46;6.53;;;4.67;;
5898;SDS011;2975;50.956;6.962;2022-11-15T01:16:12;8.27;;;5.03;;
5898;SDS011;2975;50.956;6.962;2022-11-15T01:18:41;6.83;;;5.30;;
5898;SDS011;2975;50.956;6.962;2022-11-15T01:21:09;10.00;;;5.20;;
5898;SDS011;2975;50.956;6.962;2022-11-15T01:23:36;7.47;;;4.93;;
5898;SDS011;2975;50.956;6.962;2022-11-15T01:26:03;7.20;;;5.57;;
5898;SDS011;2975;50.956;6.962;2022-11-15T01:28:31;9.23;;;5.10;;
5898;SDS011;2975;50.956;6.962;2022-11-15T01:31:02;6.97;;;5.23;;
5898;SDS011;2975;50.956;6.962;2022-11-15T01:33:28;7.97;;;5.60;;
5898;SDS011;2975;50.956;6.962;2022-11-15T01:35:54;6.10;;;4.80;;
5898;SDS011;2975;50.956;6.962;2022-11-15T01:38:20;9.57;;;5.60;;
5898;SDS011;2975;50.956;6.962;2022-11-15T01:40:47;8.47;;;5.20;;
5898;SDS011;2975;50.956;6.962;2022-11-15T01:43:20;7.23;;;4.90;;
5898;SDS011;2975;50.956;6.962;2022-11-15T01:45:54;9.53;;;5.70;;
5898;SDS011;2975;50.956;6.962;2022-11-15T01:48:25;10.53;;;5.40;;
5898;SDS011;2975;50.956;6.962;2022-11-15T01:50:57;8.43;;;5.17;;
5898;SDS011;2975;50.956;6.962;2022-11-15T01:53:23;9.27;;;5.80;;
5898;SDS011;2975;50.956;6.962;2022-11-15T01:55:51;7.47;;;4.97;;
5898;SDS011;2975;50.956;6.962;2022-11-15T01:58:18;7.60;;;5.83;;
5898;SDS011;2975;50.956;6.962;2022-11-15T02:00:44;6.43;;;5.10;;
5898;SDS011;2975;50.956;6.962;2022-11-15T02:03:10;12.80;;;5.47;;
5898;SDS011;2975;50.956;6.962;2022-11-15T02:05:35;8.83;;;5.00;;
5898;SDS011;2975;50.956;6.962;2022-11-15T02:08:02;10.33;;;5.37;;
5898;SDS011;2975;50.956;6.962;2022-11-15T02:10:28;9.70;;;5.83;;
5898;SDS011;2975;50.956;6.962;2022-11-15T02:12:54;7.60;;;5.73;;
5898;SDS011;2975;50.956;6.962;2022-11-15T02:15:21;10.20;;;5.10;;
5898;SDS011;2975;50.956;6.962;2022-11-15T02:21:17;7.67;;;5.10;;
5898;SDS011;2975;50.956;6.962;2022-11-15T02:32:07;7.30;;;5.70;;
5898;SDS011;2975;50.956;6.962;2022-11-15T02:40:22;6.67;;;5.17;;
5898;SDS011;2975;50.956;6.962;2022-11-15T02:43:04;6.83;;;5.17;;
5898;SDS011;2975;50.956;6.962;2022-11-15T02:45:54;6.30;;;5.00;;
5898;SDS011;2975;50.956;6.962;2022-11-15T02:48:26;6.80;;;5.00;;
5898;SDS011;2975;50.956;6.962;2022-11-15T02:50:52;7.37;;;5.37;;
5898;SDS011;2975;50.956;6.962;2022-11-15T02:53:18;6.17;;;5.00;;
5898;SDS011;2975;50.956;6.962;2022-11-15T02:55:49;8.27;;;5.10;;
5898;SDS011;2975;50.956;6.962;2022-11-15T03:07:05;6.80;;;4.60;;
5898;SDS011;2975;50.956;6.962;2022-11-15T03:09:52;6.43;;;4.73;;
5898;SDS011;2975;50.956;6.962;2022-11-15T03:13:09;7.03;;;4.60;;
5898;SDS011;2975;50.956;6.962;2022-11-15T03:15:20;8.07;;;4.70;;
5898;SDS011;2975;50.956;6.962;2022-11-15T03:17:53;5.50;;;4.63;;
5898;SDS011;2975;50.956;6.962;2022-11-15T03:20:25;7.37;;;4.33;;
5898;SDS011;2975;50.956;6.962;2022-11-15T03:22:52;6.23;;;4.40;;
5898;SDS011;2975;50.956;6.962;2022-11-15T03:25:22;8.37;;;4.70;;
5898;SDS011;2975;50.956;6.962;2022-11-15T03:27:50;7.27;;;4.47;;
5898;SDS011;2975;50.956;6.962;2022-11-15T03:30:20;7.17;;;4.53;;
5898;SDS011;2975;50.956;6.962;2022-11-15T03:32:53;4.53;;;4.00;;
5898;SDS011;2975;50.956;6.962;2022-11-15T03:35:22;6.63;;;4.20;;
5898;SDS011;2975;50.956;6.962;2022-11-15T03:40:40;6.77;;;4.00;;
5898;SDS011;2975;50.956;6.962;2022-11-15T03:43:15;6.00;;;4.17;;
5898;SDS011;2975;50.956;6.962;2022-11-15T03:45:55;6.33;;;4.30;;
5898;SDS011;2975;50.956;6.962;2022-11-15T03:48:30;7.23;;;4.30;;
5898;SDS011;2975;50.956;6.962;2022-11-15T03:51:02;4.33;;;3.90;;
5898;SDS011;2975;50.956;6.962;2022-11-15T03:53:29;5.77;;;4.37;;
5898;SDS011;2975;50.956;6.962;2022-11-15T03:55:56;7.40;;;4.20;;
5898;SDS011;2975;50.956;6.962;2022-11-15T03:58:21;6.27;;;4.57;;
5898;SDS011;2975;50.956;6.962;2022-11-15T04:00:47;5.93;;;4.30;;
5898;SDS011;2975;50.956;6.962;2022-11-15T04:03:13;7.73;;;4.03;;
5898;SDS011;2975;50.956;6.962;2022-11-15T04:05:39;5.97;;;4.33;;
5898;SDS011;2975;50.956;6.962;2022-11-15T04:08:04;4.57;;;4.03;;
5898;SDS011;2975;50.956;6.962;2022-11-15T04:10:30;5.40;;;3.87;;
5898;SDS011;2975;50.956;6.962;2022-11-15T04:12:56;5.83;;;4.47;;
5898;SDS011;2975;50.956;6.962;2022-11-15T04:15:22;6.13;;;4.67;;
5898;SDS011;2975;50.956;6.962;2022-11-15T04:17:50;5.40;;;4.47;;
5898;SDS011;2975;50.956;6.962;2022-11-15T04:20:18;7.97;;;4.77;;
5898;SDS011;2975;50.956;6.962;2022-11-15T04:23:03;5.27;;;4.17;;
5898;SDS011;2975;50.956;6.962;2022-11-15T04:25:50;7.80;;;4.53;;
5898;SDS011;2975;50.956;6.962;2022-11-15T04:28:18;5.57;;;4.33;;
5898;SDS011;2975;50.956;6.962;2022-11-15T04:30:44;5.00;;;4.30;;
5898;SDS011;2975;50.956;6.962;2022-11-15T04:33:09;6.47;;;4.43;;
5898;SDS011;2975;50.956;6.962;2022-11-15T04:35:35;9.70;;;5.47;;
5898;SDS011;2975;50.956;6.962;2022-11-15T04:38:01;5.40;;;4.90;;
5898;SDS011;2975;50.956;6.962;2022-11-15T04:40:27;5.53;;;4.93;;
5898;SDS011;2975;50.956;6.962;2022-11-15T04:42:52;6.33;;;4.80;;
5898;SDS011;2975;50.956;6.962;2022-11-15T04:45:18;5.30;;;4.80;;
5898;SDS011;2975;50.956;6.962;2022-11-15T04:47:44;4.80;;;4.07;;
5898;SDS011;2975;50.956;6.962;2022-11-15T04:50:11;6.33;;;4.27;;
5898;SDS011;2975;50.956;6.962;2022-11-15T04:52:39;7.10;;;4.50;;
5898;SDS011;2975;50.956;6.962;2022-11-15T04:55:10;6.83;;;4.20;;
5898;SDS011;2975;50.956;6.962;2022-11-15T04:57:36;6.17;;;4.53;;
5898;SDS011;2975;50.956;6.962;2022-11-15T05:00:03;4.63;;;3.90;;
5898;SDS011;2975;50.956;6.962;2022-11-15T05:02:31;7.50;;;4.43;;
5898;SDS011;2975;50.956;6.962;2022-11-15T05:05:15;6.00;;;4.23;;
5898;SDS011;2975;50.956;6.962;2022-11-15T05:07:41;7.13;;;5.00;;
5898;SDS011;2975;50.956;6.962;2022-11-15T05:10:06;6.30;;;4.20;;
5898;SDS011;2975;50.956;6.962;2022-11-15T05:12:32;4.37;;;3.83;;
5898;SDS011;2975;50.956;6.962;2022-11-15T05:14:58;5.10;;;4.23;;
5898;SDS011;2975;50.956;6.962;2022-11-15T05:17:23;4.70;;;4.13;;
5898;SDS011;2975;50.956;6.962;2022-11-15T05:19:49;4.47;;;4.07;;
5898;SDS011;2975;50.956;6.962;2022-11-15T05:22:16;6.00;;;4.20;;
5898;SDS011;2975;50.956;6.962;2022-11-15T05:24:43;5.97;;;3.90;;
5898;SDS011;2975;50.956;6.962;2022-11-15T05:27:08;6.63;;;3.97;;
5898;SDS011;2975;50.956;6.962;2022-11-15T05:29:34;5.67;;;4.03;;
5898;SDS011;2975;50.956;6.962;2022-11-15T05:31:59;4.20;;;3.53;;
5898;SDS011;2975;50.956;6.962;2022-11-15T05:34:25;4.57;;;3.83;;
5898;SDS011;2975;50.956;6.962;2022-11-15T05:36:51;5.43;;;4.23;;
5898;SDS011;2975;50.956;6.962;2022-11-15T05:39:17;4.20;;;3.80;;
5898;SDS011;2975;50.956;6.962;2022-11-15T05:41:44;6.67;;;4.00;;
5898;SDS011;2975;50.956;6.962;2022-11-15T05:44:17;5.33;;;4.10;;
5898;SDS011;2975;50.956;6.962;2022-11-15T05:46:46;6.13;;;4.10;;
5898;SDS011;2975;50.956;6.962;2022-11-15T05:49:13;5.60;;;3.40;;
5898;SDS011;2975;50.956;6.962;2022-11-15T05:51:42;8.73;;;4.10;;
5898;SDS011;2975;50.956;6.962;2022-11-15T05:54:10;3.73;;;3.20;;
5898;SDS011;2975;50.956;6.962;2022-11-15T05:56:36;4.20;;;3.80;;
5898;SDS011;2975;50.956;6.962;2022-11-15T05:59:02;4.40;;;4.00;;
5898;SDS011;2975;50.956;6.962;2022-11-15T06:01:29;4.73;;;3.83;;
5898;SDS011;2975;50.956;6.962;2022-11-15T06:03:55;4.90;;;3.77;;
5898;SDS011;2975;50.956;6.962;2022-11-15T06:06:20;4.07;;;3.67;;
5898;SDS011;2975;50.956;6.962;2022-11-15T06:08:46;5.57;;;3.83;;
5898;SDS011;2975;50.956;6.962;2022-11-15T06:11:12;5.33;;;3.93;;
5898;SDS011;2975;50.956;6.962;2022-11-15T06:13:38;4.60;;;4.20;;
5898;SDS011;2975;50.956;6.962;2022-11-15T06:16:04;7.33;;;4.10;;
5898;SDS011;2975;50.956;6.962;2022-11-15T06:18:33;6.07;;;4.40;;
5898;SDS011;2975;50.956;6.962;2022-11-15T06:21:00;4.67;;;3.73;;
5898;SDS011;2975;50.956;6.962;2022-11-15T06:23:26;4.30;;;3.90;;
5898;SDS011;2975;50.956;6.962;2022-11-15T06:25:52;5.70;;;3.67;;
5898;SDS011;2975;50.956;6.962;2022-11-15T06:28:18;5.27;;;4.33;;
5898;SDS011;2975;50.956;6.962;2022-11-15T06:30:44;4.33;;;3.93;;
5898;SDS011;2975;50.956;6.962;2022-11-15T06:33:09;5.47;;;4.20;;
5898;SDS011;2975;50.956;6.962;2022-11-15T06:35:35;4.47;;;3.80;;
5898;SDS011;2975;50.956;6.962;2022-11-15T06:38:02;5.17;;;3.73;;
5898;SDS011;2975;50.956;6.962;2022-11-15T06:40:33;4.40;;;3.73;;
5898;SDS011;2975;50.956;6.962;2022-11-15T06:43:00;5.20;;;4.10;;
5898;SDS011;2975;50.956;6.962;2022-11-15T06:45:26;6.70;;;3.90;;
5898;SDS011;2975;50.956;6.962;2022-11-15T06:47:51;5.13;;;3.60;;
5898;SDS011;2975;50.956;6.962;2022-11-15T06:50:17;4.17;;;3.33;;
5898;SDS011;2975;50.956;6.962;2022-11-15T06:52:43;4.57;;;3.43;;
5898;SDS011;2975;50.956;6.962;2022-11-15T06:55:08;4.33;;;3.37;;
5898;SDS011;2975;50.956;6.962;2022-11-15T06:57:34;5.07;;;3.70;;
5898;SDS011;2975;50.956;6.962;2022-11-15T07:00:00;6.30;;;4.00;;
5898;SDS011;2975;50.956;6.962;2022-11-15T07:02:27;3.97;;;3.37;;
5898;SDS011;2975;50.956;6.962;2022-11-15T07:04:52;5.43;;;3.83;;
5898;SDS011;2975;50.956;6.962;2022-11-15T07:07:18;4.27;;;3.07;;
5898;SDS011;2975;50.956;6.962;2022-11-15T07:09:44;5.03;;;3.40;;
5898;SDS011;2975;50.956;6.962;2022-11-15T07:12:09;3.87;;;3.27;;
5898;SDS011;2975;50.956;6.962;2022-11-15T07:14:35;4.30;;;3.30;;
5898;SDS011;2975;50.956;6.962;2022-11-15T07:17:03;5.03;;;3.50;;
5898;SDS011;2975;50.956;6.962;2022-11-15T07:19:29;5.67;;;2.83;;
5898;SDS011;2975;50.956;6.962;2022-11-15T07:21:55;3.97;;;2.70;;
5898;SDS011;2975;50.956;6.962;2022-11-15T07:24:21;5.37;;;3.23;;
5898;SDS011;2975;50.956;6.962;2022-11-15T07:26:46;4.60;;;3.03;;
5898;SDS011;2975;50.956;6.962;2022-11-15T07:29:12;4.50;;;3.03;;
5898;SDS011;2975;50.956;6.962;2022-11-15T07:31:38;4.63;;;3.17;;
5898;SDS011;2975;50.956;6.962;2022-11-15T07:34:04;3.73;;;2.80;;
5898;SDS011;2975;50.956;6.962;2022-11-15T07:36:29;4.93;;;3.80;;
5898;SDS011;2975;50.956;6.962;2022-11-15T07:38:55;4.10;;;3.53;;
5898;SDS011;2975;50.956;6.962;2022-11-15T07:41:20;7.77;;;3.47;;
5898;SDS011;2975;50.956;6.962;2022-11-15T07:43:46;3.77;;;3.20;;
5898;SDS011;2975;50.956;6.962;2022-11-15T07:46:12;6.00;;;2.97;;
5898;SDS011;2975;50.956;6.962;2022-11-15T07:48:38;6.43;;;3.37;;
5898;SDS011;2975;50.956;6.962;2022-11-15T07:51:05;5.70;;;3.30;;
5898;SDS011;2975;50.956;6.962;2022-11-15T07:53:31;5.10;;;2.97;;
5898;SDS011;2975;50.956;6.962;2022-11-15T07:55:57;5.40;;;2.90;;
5898;SDS011;2975;50.956;6.962;2022-11-15T07:58:23;4.60;;;2.40;;
5898;SDS011;2975;50.956;6.962;2022-11-15T08:00:48;3.47;;;2.03;;
5898;SDS011;2975;50.956;6.962;2022-11-15T08:03:14;6.37;;;2.63;;
5898;SDS011;2975;50.956;6.962;2022-11-15T08:05:41;3.60;;;2.33;;
5898;SDS011;2975;50.956;6.962;2022-11-15T08:08:08;2.40;;;2.10;;
5898;SDS011;2975;50.956;6.962;2022-11-15T08:10:35;2.83;;;2.57;;
5898;SDS011;2975;50.956;6.962;2022-11-15T08:13:02;3.43;;;1.90;;
5898;SDS011;2975;50.956;6.962;2022-11-15T08:15:29;2.60;;;2.00;;
5898;SDS011;2975;50.956;6.962;2022-11-15T08:17:56;2.73;;;1.97;;
5898;SDS011;2975;50.956;6.962;2022-11-15T08:20:23;3.70;;;1.90;;
5898;SDS011;2975;50.956;6.962;2022-11-15T08:22:50;2.60;;;1.90;;
5898;SDS011;2975;50.956;6.962;2022-11-15T08:25:16;8.53;;;2.10;;
5898;SDS011;2975;50.956;6.962;2022-11-15T08:27:42;7.90;;;2.30;;
5898;SDS011;2975;50.956;6.962;2022-11-15T08:30:08;8.60;;;2.10;;
5898;SDS011;2975;50.956;6.962;2022-11-15T08:32:34;2.20;;;1.90;;
5898;SDS011;2975;50.956;6.962;2022-11-15T08:35:00;2.90;;;2.30;;
5898;SDS011;2975;50.956;6.962;2022-11-15T08:37:25;4.03;;;2.07;;
5898;SDS011;2975;50.956;6.962;2022-11-15T08:39:51;3.37;;;1.87;;
5898;SDS011;2975;50.956;6.962;2022-11-15T08:42:16;4.40;;;1.80;;
5898;SDS011;2975;50.956;6.962;2022-11-15T08:44:42;7.47;;;4.20;;
5898;SDS011;2975;50.956;6.962;2022-11-15T08:47:10;5.73;;;2.00;;
5898;SDS011;2975;50.956;6.962;2022-11-15T08:49:37;6.37;;;1.97;;
5898;SDS011;2975;50.956;6.962;2022-11-15T08:52:03;2.00;;;1.80;;
5898;SDS011;2975;50.956;6.962;2022-11-15T08:54:29;3.43;;;1.93;;
5898;SDS011;2975;50.956;6.962;2022-11-15T08:56:54;2.80;;;1.80;;
5898;SDS011;2975;50.956;6.962;2022-11-15T08:59:20;6.40;;;1.87;;
5898;SDS011;2975;50.956;6.962;2022-11-15T09:01:45;1.70;;;1.60;;
5898;SDS011;2975;50.956;6.962;2022-11-15T09:04:11;3.13;;;2.00;;
5898;SDS011;2975;50.956;6.962;2022-11-15T09:06:37;4.67;;;1.80;;
5898;SDS011;2975;50.956;6.962;2022-11-15T09:09:02;1.97;;;1.63;;
5898;SDS011;2975;50.956;6.962;2022-11-15T09:11:28;7.67;;;2.77;;
5898;SDS011;2975;50.956;6.962;2022-11-15T09:13:54;3.67;;;1.80;;
5898;SDS011;2975;50.956;6.962;2022-11-15T09:16:19;2.83;;;1.30;;
5898;SDS011;2975;50.956;6.962;2022-11-15T09:18:45;3.10;;;1.63;;
5898;SDS011;2975;50.956;6.962;2022-11-15T09:21:11;2.57;;;1.60;;
5898;SDS011;2975;50.956;6.962;2022-11-15T09:23:37;2.70;;;1.60;;
5898;SDS011;2975;50.956;6.962;2022-11-15T09:26:04;2.47;;;2.07;;
5898;SDS011;2975;50.956;6.962;2022-11-15T09:28:30;1.73;;;1.40;;
5898;SDS011;2975;50.956;6.962;2022-11-15T09:30:58;9.10;;;1.87;;
5898;SDS011;2975;50.956;6.962;2022-11-15T09:33:25;6.27;;;1.70;;
5898;SDS011;2975;50.956;6.962;2022-11-15T09:35:52;3.07;;;1.50;;
5898;SDS011;2975;50.956;6.962;2022-11-15T09:38:19;2.37;;;1.60;;
5898;SDS011;2975;50.956;6.962;2022-11-15T09:40:45;1.80;;;1.53;;
5898;SDS011;2975;50.956;6.962;2022-11-15T09:43:30;3.63;;;1.20;;
5898;SDS011;2975;50.956;6.962;2022-11-15T09:48:57;1.97;;;1.23;;
5898;SDS011;2975;50.956;6.962;2022-11-15T09:56:39;2.47;;;1.20;;
5898;SDS011;2975;50.956;6.962;2022-11-15T10:04:22;1.43;;;0.90;;
5898;SDS011;2975;50.956;6.962;2022-11-15T10:09:38;1.60;;;0.90;;
5898;SDS011;2975;50.956;6.962;2022-11-15T10:12:12;1.10;;;0.90;;
5898;SDS011;2975;50.956;6.962;2022-11-15T10:14:38;2.50;;;0.80;;
5898;SDS011;2975;50.956;6.962;2022-11-15T10:25:28;3.70;;;0.73;;
5898;SDS011;2975;50.956;6.962;2022-11-15T10:27:53;2.60;;;0.73;;
5898;SDS011;2975;50.956;6.962;2022-11-15T10:30:41;2.93;;;0.70;;
5898;SDS011;2975;50.956;6.962;2022-11-15T10:33:15;3.13;;;1.00;;
5898;SDS011;2975;50.956;6.962;2022-11-15T10:44:01;2.93;;;0.80;;
5898;SDS011;2975;50.956;6.962;2022-11-15T10:46:28;1.77;;;0.90;;
5898;SDS011;2975;50.956;6.962;2022-11-15T10:49:01;1.87;;;0.90;;
5898;SDS011;2975;50.956;6.962;2022-11-15T10:51:53;2.90;;;0.90;;
5898;SDS011;2975;50.956;6.962;2022-11-15T10:54:25;2.93;;;0.77;;
5898;SDS011;2975;50.956;6.962;2022-11-15T10:57:00;1.00;;;0.70;;
5898;SDS011;2975;50.956;6.962;2022-11-15T10:59:31;1.93;;;0.73;;
5898;SDS011;2975;50.956;6.962;2022-11-15T11:02:00;3.03;;;0.70;;
5898;SDS011;2975;50.956;6.962;2022-11-15T11:04:26;1.30;;;0.80;;
5898;SDS011;2975;50.956;6.962;2022-11-15T11:06:56;3.20;;;0.93;;
5898;SDS011;2975;50.956;6.962;2022-11-15T11:09:37;1.13;;;0.80;;
5898;SDS011;2975;50.956;6.962;2022-11-15T11:12:09;2.97;;;1.00;;
5898;SDS011;2975;50.956;6.962;2022-11-15T11:14:37;2.97;;;0.90;;
5898;SDS011;2975;50.956;6.962;2022-11-15T11:20:05;2.20;;;0.70;;
5898;SDS011;2975;50.956;6.962;2022-11-15T11:22:41;1.80;;;0.60;;
5898;SDS011;2975;50.956;6.962;2022-11-15T11:28:10;1.53;;;0.77;;
5898;SDS011;2975;50.956;6.962;2022-11-15T11:35:55;1.97;;;0.50;;
5898;SDS011;2975;50.956;6.962;2022-11-15T11:39:00;0.50;;;0.50;;
5898;SDS011;2975;50.956;6.962;2022-11-15T11:41:55;2.77;;;0.87;;
5898;SDS011;2975;50.956;6.962;2022-11-15T11:44:28;2.40;;;0.90;;
5898;SDS011;2975;50.956;6.962;2022-11-15T11:47:20;3.13;;;1.23;;
5898;SDS011;2975;50.956;6.962;2022-11-15T11:49:53;1.97;;;0.90;;
5898;SDS011;2975;50.956;6.962;2022-11-15T11:52:39;2.23;;;0.97;;
5898;SDS011;2975;50.956;6.962;2022-11-15T11:58:10;5.00;;;0.97;;
5898;SDS011;2975;50.956;6.962;2022-11-15T12:00:41;3.17;;;1.00;;
5898;SDS011;2975;50.956;6.962;2022-11-15T12:03:20;2.77;;;0.70;;
5898;SDS011;2975;50.956;6.962;2022-11-15T12:09:26;1.03;;;0.67;;
5898;SDS011;2975;50.956;6.962;2022-11-15T12:12:09;4.47;;;0.90;;
5898;SDS011;2975;50.956;6.962;2022-11-15T12:15:01;3.40;;;0.87;;
5898;SDS011;2975;50.956;6.962;2022-11-15T12:17:33;1.50;;;0.80;;
5898;SDS011;2975;50.956;6.962;2022-11-15T12:19:59;3.40;;;0.73;;
5898;SDS011;2975;50.956;6.962;2022-11-15T12:25:24;3.40;;;0.90;;
5898;SDS011;2975;50.956;6.962;2022-11-15T12:30:56;2.03;;;1.00;;
5898;SDS011;2975;50.956;6.962;2022-11-15T12:33:29;2.50;;;1.40;;
5898;SDS011;2975;50.956;6.962;2022-11-15T12:35:59;2.87;;;1.07;;
5898;SDS011;2975;50.956;6.962;2022-11-15T12:41:21;1.27;;;0.60;;
5898;SDS011;2975;50.956;6.962;2022-11-15T12:43:49;3.10;;;1.20;;
5898;SDS011;2975;50.956;6.962;2022-11-15T12:46:20;2.60;;;0.90;;
5898;SDS011;2975;50.956;6.962;2022-11-15T12:51:13;1.73;;;0.80;;
5898;SDS011;2975;50.956;6.962;2022-11-15T12:53:38;2.10;;;0.87;;
5898;SDS011;2975;50.956;6.962;2022-11-15T13:11:54;5.57;;;1.33;;
5898;SDS011;2975;50.956;6.962;2022-11-15T13:17:02;2.77;;;1.17;;
5898;SDS011;2975;50.956;6.962;2022-11-15T13:19:35;3.20;;;1.30;;
5898;SDS011;2975;50.956;6.962;2022-11-15T13:22:04;3.10;;;1.10;;
5898;SDS011;2975;50.956;6.962;2022-11-15T13:24:51;2.43;;;1.10;;
5898;SDS011;2975;50.956;6.962;2022-11-15T13:27:18;3.03;;;1.67;;
5898;SDS011;2975;50.956;6.962;2022-11-15T13:29:45;1.47;;;1.17;;
5898;SDS011;2975;50.956;6.962;2022-11-15T13:32:11;3.27;;;1.53;;
5898;SDS011;2975;50.956;6.962;2022-11-15T13:34:38;1.40;;;1.00;;
5898;SDS011;2975;50.956;6.962;2022-11-15T13:39:46;4.93;;;1.60;;
5898;SDS011;2975;50.956;6.962;2022-11-15T13:42:17;1.37;;;1.10;;
5898;SDS011;2975;50.956;6.962;2022-11-15T13:44:59;4.60;;;1.30;;
5898;SDS011;2975;50.956;6.962;2022-11-15T13:47:27;2.43;;;1.50;;
5898;SDS011;2975;50.956;6.962;2022-11-15T13:49:57;3.03;;;1.53;;
5898;SDS011;2975;50.956;6.962;2022-11-15T13:52:26;2.87;;;1.60;;
5898;SDS011;2975;50.956;6.962;2022-11-15T14:00:36;6.10;;;1.63;;
5898;SDS011;2975;50.956;6.962;2022-11-15T14:05:39;2.67;;;1.73;;
5898;SDS011;2975;50.956;6.962;2022-11-15T14:11:04;3.37;;;1.73;;
5898;SDS011;2975;50.956;6.962;2022-11-15T14:13:38;2.77;;;1.50;;
5898;SDS011;2975;50.956;6.962;2022-11-15T14:16:20;1.67;;;1.57;;
5898;SDS011;2975;50.956;6.962;2022-11-15T14:18:57;1.97;;;1.40;;
5898;SDS011;2975;50.956;6.962;2022-11-15T14:21:22;2.53;;;1.67;;
5898;SDS011;2975;50.956;6.962;2022-11-15T14:23:48;2.23;;;1.90;;
5898;SDS011;2975;50.956;6.962;2022-11-15T14:26:30;6.33;;;1.60;;
5898;SDS011;2975;50.956;6.962;2022-11-15T14:29:43;3.00;;;1.50;;
5898;SDS011;2975;50.956;6.962;2022-11-15T14:31:50;2.90;;;1.80;;
5898;SDS011;2975;50.956;6.962;2022-11-15T14:34:16;3.00;;;1.73;;
5898;SDS011;2975;50.956;6.962;2022-11-15T14:36:41;2.83;;;1.70;;
5898;SDS011;2975;50.956;6.962;2022-11-15T14:39:07;1.93;;;1.23;;
5898;SDS011;2975;50.956;6.962;2022-11-15T14:41:34;3.77;;;1.50;;
5898;SDS011;2975;50.956;6.962;2022-11-15T14:44:05;5.63;;;1.60;;
5898;SDS011;2975;50.956;6.962;2022-11-15T14:46:31;1.40;;;1.30;;
5898;SDS011;2975;50.956;6.962;2022-11-15T14:48:57;2.40;;;1.50;;
5898;SDS011;2975;50.956;6.962;2022-11-15T14:51:22;3.53;;;1.50;;
5898;SDS011;2975;50.956;6.962;2022-11-15T14:53:48;4.70;;;1.97;;
5898;SDS011;2975;50.956;6.962;2022-11-15T14:56:14;4.27;;;1.77;;
5898;SDS011;2975;50.956;6.962;2022-11-15T14:58:41;2.87;;;1.50;;
5898;SDS011;2975;50.956;6.962;2022-11-15T15:01:12;4.87;;;1.70;;
5898;SDS011;2975;50.956;6.962;2022-11-15T15:03:41;3.43;;;1.70;;
5898;SDS011;2975;50.956;6.962;2022-11-15T15:06:08;5.50;;;1.80;;
5898;SDS011;2975;50.956;6.962;2022-11-15T15:08:34;4.63;;;1.87;;
5898;SDS011;2975;50.956;6.962;2022-11-15T15:11:00;2.37;;;1.60;;
5898;SDS011;2975;50.956;6.962;2022-11-15T15:13:25;6.47;;;1.80;;
5898;SDS011;2975;50.956;6.962;2022-11-15T15:15:53;2.20;;;1.67;;
5898;SDS011;2975;50.956;6.962;2022-11-15T15:18:19;2.73;;;1.60;;
5898;SDS011;2975;50.956;6.962;2022-11-15T15:20:45;1.97;;;1.40;;
5898;SDS011;2975;50.956;6.962;2022-11-15T15:23:18;2.47;;;1.50;;
5898;SDS011;2975;50.956;6.962;2022-11-15T15:25:46;2.40;;;1.40;;
5898;SDS011;2975;50.956;6.962;2022-11-15T15:28:13;1.90;;;1.53;;
5898;SDS011;2975;50.956;6.962;2022-11-15T15:30:39;2.50;;;1.57;;
5898;SDS011;2975;50.956;6.962;2022-11-15T15:33:05;3.67;;;1.80;;
5898;SDS011;2975;50.956;6.962;2022-11-15T15:35:32;2.83;;;1.40;;
5898;SDS011;2975;50.956;6.962;2022-11-15T15:37:59;2.33;;;1.73;;
5898;SDS011;2975;50.956;6.962;2022-11-15T15:40:25;3.37;;;1.60;;
5898;SDS011;2975;50.956;6.962;2022-11-15T15:42:52;3.03;;;1.50;;
5898;SDS011;2975;50.956;6.962;2022-11-15T15:45:18;3.10;;;1.40;;
5898;SDS011;2975;50.956;6.962;2022-11-15T15:47:44;1.67;;;1.33;;
5898;SDS011;2975;50.956;6.962;2022-11-15T15:52:58;6.53;;;3.27;;
5898;SDS011;2975;50.956;6.962;2022-11-15T15:55:25;7.43;;;3.80;;
5898;SDS011;2975;50.956;6.962;2022-11-15T15:57:50;7.33;;;3.93;;
5898;SDS011;2975;50.956;6.962;2022-11-15T16:00:16;6.10;;;3.20;;
5898;SDS011;2975;50.956;6.962;2022-11-15T16:02:43;5.27;;;3.53;;
5898;SDS011;2975;50.956;6.962;2022-11-15T16:05:09;6.10;;;3.27;;
5898;SDS011;2975;50.956;6.962;2022-11-15T16:07:36;4.87;;;2.40;;
5898;SDS011;2975;50.956;6.962;2022-11-15T16:10:23;3.80;;;1.57;;
5898;SDS011;2975;50.956;6.962;2022-11-15T16:12:49;1.47;;;1.30;;
5898;SDS011;2975;50.956;6.962;2022-11-15T16:15:16;2.33;;;1.50;;
5898;SDS011;2975;50.956;6.962;2022-11-15T16:17:50;1.83;;;1.13;;
5898;SDS011;2975;50.956;6.962;2022-11-15T16:22:45;2.20;;;1.30;;
5898;SDS011;2975;50.956;6.962;2022-11-15T16:25:11;2.27;;;1.40;;
5898;SDS011;2975;50.956;6.962;2022-11-15T16:27:37;3.07;;;1.30;;
5898;SDS011;2975;50.956;6.962;2022-11-15T16:30:11;2.03;;;1.20;;
5898;SDS011;2975;50.956;6.962;2022-11-15T16:32:39;3.57;;;1.60;;
5898;SDS011;2975;50.956;6.962;2022-11-15T16:35:05;2.63;;;1.73;;
5898;SDS011;2975;50.956;6.962;2022-11-15T16:37:32;2.50;;;1.63;;
5898;SDS011;2975;50.956;6.962;2022-11-15T16:39:57;4.13;;;1.30;;
5898;SDS011;2975;50.956;6.962;2022-11-15T16:42:23;2.90;;;1.10;;
5898;SDS011;2975;50.956;6.962;2022-11-15T16:44:49;2.83;;;1.57;;
5898;SDS011;2975;50.956;6.962;2022-11-15T16:47:18;4.90;;;1.47;;
5898;SDS011;2975;50.956;6.962;2022-11-15T16:49:44;3.97;;;1.43;;
5898;SDS011;2975;50.956;6.962;2022-11-15T16:52:10;1.53;;;1.10;;
5898;SDS011;2975;50.956;6.962;2022-11-15T16:54:36;1.40;;;1.30;;
5898;SDS011;2975;50.956;6.962;2022-11-15T16:57:01;1.90;;;1.20;;
5898;SDS011;2975;50.956;6.962;2022-11-15T16:59:27;2.77;;;1.20;;
5898;SDS011;2975;50.956;6.962;2022-11-15T17:01:53;3.27;;;1.67;;
5898;SDS011;2975;50.956;6.962;2022-11-15T17:04:19;1.57;;;1.37;;
5898;SDS011;2975;50.956;6.962;2022-11-15T17:06:46;1.73;;;1.30;;
5898;SDS011;2975;50.956;6.962;2022-11-15T17:09:17;2.83;;;1.27;;
5898;SDS011;2975;50.956;6.962;2022-11-15T17:11:50;1.63;;;1.53;;
5898;SDS011;2975;50.956;6.962;2022-11-15T17:14:16;1.83;;;1.50;;
5898;SDS011;2975;50.956;6.962;2022-11-15T17:16:42;2.63;;;1.40;;
5898;SDS011;2975;50.956;6.962;2022-11-15T17:19:18;3.90;;;1.47;;
5898;SDS011;2975;50.956;6.962;2022-11-15T17:21:45;1.60;;;1.47;;
5898;SDS011;2975;50.956;6.962;2022-11-15T17:24:13;3.17;;;1.60;;
5898;SDS011;2975;50.956;6.962;2022-11-15T17:26:39;4.27;;;1.70;;
5898;SDS011;2975;50.956;6.962;2022-11-15T17:29:06;2.67;;;2.00;;
5898;SDS011;2975;50.956;6.962;2022-11-15T17:31:35;3.50;;;1.97;;